sensor_id;sensor_type;location;lat;lon;timestamp;temperature;humidity
12700;DHT22;6414;49.570;6.060;2023-05-10T00:00:26;11.80;99.90
12700;DHT22;6414;49.570;6.060;2023-05-10T00:03:13;11.80;99.90
12700;DHT22;6414;49.570;6.060;2023-05-10T00:06:00;11.80;99.90
12700;DHT22;6414;49.570;6.060;2023-05-10T00:08:46;11.80;99.90
12700;DHT22;6414;49.570;6.060;2023-05-10T00:11:33;11.80;99.90
12700;DHT22;6414;49.570;6.060;2023-05-10T00:14:20;11.90;99.90
12700;DHT22;6414;49.570;6.060;2023-05-10T00:17:06;11.90;99.90
12700;DHT22;6414;49.570;6.060;2023-05-10T00:19:53;11.90;99.90
12700;DHT22;6414;49.570;6.060;2023-05-10T00:22:39;11.90;99.90
12700;DHT22;6414;49.570;6.060;2023-05-10T00:25:26;11.90;99.90
12700;DHT22;6414;49.570;6.060;2023-05-10T00:28:12;11.90;99.90
12700;DHT22;6414;49.570;6.060;2023-05-10T00:30:58;11.90;99.90
12700;DHT22;6414;49.570;6.060;2023-05-10T00:33:45;12.00;99.90
12700;DHT22;6414;49.570;6.060;2023-05-10T00:36:31;12.00;99.90
12700;DHT22;6414;49.570;6.060;2023-05-10T00:39:17;12.00;99.90
12700;DHT22;6414;49.570;6.060;2023-05-10T00:42:03;11.90;99.90
12700;DHT22;6414;49.570;6.060;2023-05-10T00:44:49;12.00;99.90
12700;DHT22;6414;49.570;6.060;2023-05-10T00:47:35;12.00;99.90
12700;DHT22;6414;49.570;6.060;2023-05-10T00:50:21;11.90;99.90
12700;DHT22;6414;49.570;6.060;2023-05-10T00:53:07;11.90;99.90
12700;DHT22;6414;49.570;6.060;2023-05-10T00:55:54;11.90;99.90
12700;DHT22;6414;49.570;6.060;2023-05-10T00:58:40;12.00;99.90
12700;DHT22;6414;49.570;6.060;2023-05-10T01:01:26;12.00;99.90
12700;DHT22;6414;49.570;6.060;2023-05-10T01:04:12;12.00;99.90
12700;DHT22;6414;49.570;6.060;2023-05-10T01:07:00;12.00;99.90
12700;DHT22;6414;49.570;6.060;2023-05-10T01:09:46;12.00;99.90
12700;DHT22;6414;49.570;6.060;2023-05-10T01:12:34;12.00;99.90
12700;DHT22;6414;49.570;6.060;2023-05-10T01:15:19;12.00;99.90
12700;DHT22;6414;49.570;6.060;2023-05-10T01:18:05;12.10;99.90
12700;DHT22;6414;49.570;6.060;2023-05-10T01:20:56;12.00;99.90
12700;DHT22;6414;49.570;6.060;2023-05-10T01:27:03;12.00;99.90
12700;DHT22;6414;49.570;6.060;2023-05-10T01:30:05;12.00;99.90
12700;DHT22;6414;49.570;6.060;2023-05-10T01:32:51;11.90;99.90
12700;DHT22;6414;49.570;6.060;2023-05-10T01:35:41;11.90;99.90
12700;DHT22;6414;49.570;6.060;2023-05-10T01:38:46;12.00;99.90
12700;DHT22;6414;49.570;6.060;2023-05-10T01:41:48;12.00;99.90
12700;DHT22;6414;49.570;6.060;2023-05-10T01:44:31;12.00;99.90
12700;DHT22;6414;49.570;6.060;2023-05-10T01:47:32;11.90;99.90
12700;DHT22;6414;49.570;6.060;2023-05-10T01:50:24;12.00;99.90
12700;DHT22;6414;49.570;6.060;2023-05-10T01:53:09;11.90;99.90
12700;DHT22;6414;49.570;6.060;2023-05-10T01:55:55;11.90;99.90
12700;DHT22;6414;49.570;6.060;2023-05-10T01:58:40;11.90;99.90
12700;DHT22;6414;49.570;6.060;2023-05-10T02:01:26;11.90;99.90
12700;DHT22;6414;49.570;6.060;2023-05-10T02:04:12;11.90;99.90
12700;DHT22;6414;49.570;6.060;2023-05-10T02:06:57;11.80;99.90
12700;DHT22;6414;49.570;6.060;2023-05-10T02:09:43;11.80;99.90
12700;DHT22;6414;49.570;6.060;2023-05-10T02:12:29;11.80;99.90
12700;DHT22;6414;49.570;6.060;2023-05-10T02:15:17;11.70;99.90
12700;DHT22;6414;49.570;6.060;2023-05-10T02:18:02;11.70;99.90
12700;DHT22;6414;49.570;6.060;2023-05-10T02:20:48;11.60;99.90
12700;DHT22;6414;49.570;6.060;2023-05-10T02:23:34;11.50;99.90
12700;DHT22;6414;49.570;6.060;2023-05-10T02:26:20;11.50;99.90
12700;DHT22;6414;49.570;6.060;2023-05-10T02:29:05;11.50;99.90
12700;DHT22;6414;49.570;6.060;2023-05-10T02:31:51;11.50;99.90
12700;DHT22;6414;49.570;6.060;2023-05-10T02:34:37;11.50;99.90
12700;DHT22;6414;49.570;6.060;2023-05-10T02:37:23;11.50;99.90
12700;DHT22;6414;49.570;6.060;2023-05-10T02:40:09;11.40;99.90
12700;DHT22;6414;49.570;6.060;2023-05-10T02:42:56;11.40;99.90
12700;DHT22;6414;49.570;6.060;2023-05-10T02:45:42;11.30;99.90
12700;DHT22;6414;49.570;6.060;2023-05-10T02:48:28;11.30;99.90
12700;DHT22;6414;49.570;6.060;2023-05-10T02:51:13;11.20;99.90
12700;DHT22;6414;49.570;6.060;2023-05-10T02:54:01;11.20;99.90
12700;DHT22;6414;49.570;6.060;2023-05-10T02:56:50;11.20;99.90
12700;DHT22;6414;49.570;6.060;2023-05-10T02:59:34;11.20;99.90
12700;DHT22;6414;49.570;6.060;2023-05-10T03:02:20;11.10;99.90
12700;DHT22;6414;49.570;6.060;2023-05-10T03:05:05;11.10;99.90
12700;DHT22;6414;49.570;6.060;2023-05-10T03:07:52;11.10;99.90
12700;DHT22;6414;49.570;6.060;2023-05-10T03:10:41;11.10;99.90
12700;DHT22;6414;49.570;6.060;2023-05-10T03:13:46;11.00;99.90
12700;DHT22;6414;49.570;6.060;2023-05-10T03:16:34;11.00;99.90
12700;DHT22;6414;49.570;6.060;2023-05-10T03:19:32;11.00;99.90
12700;DHT22;6414;49.570;6.060;2023-05-10T03:22:20;11.00;99.90
12700;DHT22;6414;49.570;6.060;2023-05-10T03:25:04;11.00;99.90
12700;DHT22;6414;49.570;6.060;2023-05-10T03:27:48;11.00;99.90
12700;DHT22;6414;49.570;6.060;2023-05-10T03:30:34;11.00;99.90
12700;DHT22;6414;49.570;6.060;2023-05-10T03:33:23;11.00;99.90
12700;DHT22;6414;49.570;6.060;2023-05-10T03:36:09;11.10;99.90
12700;DHT22;6414;49.570;6.060;2023-05-10T03:38:55;11.00;99.90
12700;DHT22;6414;49.570;6.060;2023-05-10T03:41:40;11.00;99.90
12700;DHT22;6414;49.570;6.060;2023-05-10T03:44:26;11.00;99.90
12700;DHT22;6414;49.570;6.060;2023-05-10T03:47:12;10.90;99.90
12700;DHT22;6414;49.570;6.060;2023-05-10T03:49:58;10.90;99.90
12700;DHT22;6414;49.570;6.060;2023-05-10T03:52:44;10.90;99.90
12700;DHT22;6414;49.570;6.060;2023-05-10T03:55:30;10.80;99.90
12700;DHT22;6414;49.570;6.060;2023-05-10T03:58:16;10.80;99.90
12700;DHT22;6414;49.570;6.060;2023-05-10T04:01:03;10.80;99.90
12700;DHT22;6414;49.570;6.060;2023-05-10T04:03:50;10.90;99.90
12700;DHT22;6414;49.570;6.060;2023-05-10T04:06:37;10.80;99.90
12700;DHT22;6414;49.570;6.060;2023-05-10T04:09:22;10.80;99.90
12700;DHT22;6414;49.570;6.060;2023-05-10T04:12:08;10.80;99.90
12700;DHT22;6414;49.570;6.060;2023-05-10T04:14:54;10.80;99.90
12700;DHT22;6414;49.570;6.060;2023-05-10T04:17:40;10.90;99.90
12700;DHT22;6414;49.570;6.060;2023-05-10T04:20:27;10.90;99.90
12700;DHT22;6414;49.570;6.060;2023-05-10T04:23:13;10.80;99.90
12700;DHT22;6414;49.570;6.060;2023-05-10T04:26:00;10.90;99.90
12700;DHT22;6414;49.570;6.060;2023-05-10T04:28:47;10.80;99.90
12700;DHT22;6414;49.570;6.060;2023-05-10T04:31:33;10.80;99.90
12700;DHT22;6414;49.570;6.060;2023-05-10T04:34:20;10.80;99.90
12700;DHT22;6414;49.570;6.060;2023-05-10T04:37:06;10.80;99.90
12700;DHT22;6414;49.570;6.060;2023-05-10T04:39:52;10.80;99.90
12700;DHT22;6414;49.570;6.060;2023-05-10T04:42:43;10.90;99.90
12700;DHT22;6414;49.570;6.060;2023-05-10T04:45:29;10.80;99.90
12700;DHT22;6414;49.570;6.060;2023-05-10T04:48:15;10.80;99.90
12700;DHT22;6414;49.570;6.060;2023-05-10T04:51:02;10.80;99.90
12700;DHT22;6414;49.570;6.060;2023-05-10T04:53:49;10.80;99.90
12700;DHT22;6414;49.570;6.060;2023-05-10T04:56:35;10.80;99.90
12700;DHT22;6414;49.570;6.060;2023-05-10T04:59:21;10.80;99.90
12700;DHT22;6414;49.570;6.060;2023-05-10T05:02:08;10.80;99.90
12700;DHT22;6414;49.570;6.060;2023-05-10T05:04:55;10.90;99.90
12700;DHT22;6414;49.570;6.060;2023-05-10T05:07:40;10.70;99.90
12700;DHT22;6414;49.570;6.060;2023-05-10T05:10:27;10.80;99.90
12700;DHT22;6414;49.570;6.060;2023-05-10T05:13:13;10.80;99.90
12700;DHT22;6414;49.570;6.060;2023-05-10T05:16:01;10.70;99.90
12700;DHT22;6414;49.570;6.060;2023-05-10T05:18:47;10.60;99.90
12700;DHT22;6414;49.570;6.060;2023-05-10T05:21:33;10.70;99.90
12700;DHT22;6414;49.570;6.060;2023-05-10T05:24:19;10.70;99.90
12700;DHT22;6414;49.570;6.060;2023-05-10T05:27:06;10.80;99.90
12700;DHT22;6414;49.570;6.060;2023-05-10T05:29:55;10.80;99.90
12700;DHT22;6414;49.570;6.060;2023-05-10T05:32:41;10.90;99.90
12700;DHT22;6414;49.570;6.060;2023-05-10T05:35:27;10.80;99.90
12700;DHT22;6414;49.570;6.060;2023-05-10T05:38:14;11.00;99.90
12700;DHT22;6414;49.570;6.060;2023-05-10T05:41:01;10.90;99.90
12700;DHT22;6414;49.570;6.060;2023-05-10T05:43:47;10.90;99.90
12700;DHT22;6414;49.570;6.060;2023-05-10T05:46:33;11.10;99.90
12700;DHT22;6414;49.570;6.060;2023-05-10T05:49:19;11.10;99.90
12700;DHT22;6414;49.570;6.060;2023-05-10T05:52:06;11.10;99.90
12700;DHT22;6414;49.570;6.060;2023-05-10T05:54:51;11.10;99.90
12700;DHT22;6414;49.570;6.060;2023-05-10T05:57:38;11.20;99.90
12700;DHT22;6414;49.570;6.060;2023-05-10T06:00:25;11.30;99.90
12700;DHT22;6414;49.570;6.060;2023-05-10T06:03:10;11.20;99.90
12700;DHT22;6414;49.570;6.060;2023-05-10T06:05:56;11.20;99.90
12700;DHT22;6414;49.570;6.060;2023-05-10T06:08:42;11.30;99.90
12700;DHT22;6414;49.570;6.060;2023-05-10T06:11:28;11.30;99.90
12700;DHT22;6414;49.570;6.060;2023-05-10T06:14:15;11.20;99.90
12700;DHT22;6414;49.570;6.060;2023-05-10T06:17:01;11.30;99.90
12700;DHT22;6414;49.570;6.060;2023-05-10T06:19:47;11.40;99.90
12700;DHT22;6414;49.570;6.060;2023-05-10T06:22:33;11.40;99.90
12700;DHT22;6414;49.570;6.060;2023-05-10T06:25:20;11.50;99.90
12700;DHT22;6414;49.570;6.060;2023-05-10T06:28:06;11.50;99.90
12700;DHT22;6414;49.570;6.060;2023-05-10T06:30:52;11.50;99.90
12700;DHT22;6414;49.570;6.060;2023-05-10T06:33:38;11.40;99.90
12700;DHT22;6414;49.570;6.060;2023-05-10T06:36:25;11.60;99.90
12700;DHT22;6414;49.570;6.060;2023-05-10T06:39:11;11.50;99.90
12700;DHT22;6414;49.570;6.060;2023-05-10T06:41:57;11.40;99.90
12700;DHT22;6414;49.570;6.060;2023-05-10T06:44:44;11.40;99.90
12700;DHT22;6414;49.570;6.060;2023-05-10T06:47:31;11.70;99.90
12700;DHT22;6414;49.570;6.060;2023-05-10T06:50:17;11.70;99.90
12700;DHT22;6414;49.570;6.060;2023-05-10T06:53:03;11.70;99.90
12700;DHT22;6414;49.570;6.060;2023-05-10T06:55:50;12.00;99.90
12700;DHT22;6414;49.570;6.060;2023-05-10T06:58:36;12.00;99.90
12700;DHT22;6414;49.570;6.060;2023-05-10T07:01:22;12.00;99.90
12700;DHT22;6414;49.570;6.060;2023-05-10T07:04:08;12.20;99.90
12700;DHT22;6414;49.570;6.060;2023-05-10T07:06:56;12.40;99.90
12700;DHT22;6414;49.570;6.060;2023-05-10T07:09:41;12.30;99.90
12700;DHT22;6414;49.570;6.060;2023-05-10T07:12:27;12.20;99.90
12700;DHT22;6414;49.570;6.060;2023-05-10T07:15:13;12.40;99.90
12700;DHT22;6414;49.570;6.060;2023-05-10T07:17:59;12.20;99.90
12700;DHT22;6414;49.570;6.060;2023-05-10T07:20:45;12.30;99.90
12700;DHT22;6414;49.570;6.060;2023-05-10T07:23:31;12.30;99.90
12700;DHT22;6414;49.570;6.060;2023-05-10T07:26:16;12.00;99.90
12700;DHT22;6414;49.570;6.060;2023-05-10T07:29:02;11.80;99.90
12700;DHT22;6414;49.570;6.060;2023-05-10T07:31:48;11.50;99.90
12700;DHT22;6414;49.570;6.060;2023-05-10T07:34:34;11.30;99.90
12700;DHT22;6414;49.570;6.060;2023-05-10T07:37:19;11.30;99.90
12700;DHT22;6414;49.570;6.060;2023-05-10T07:40:06;11.30;99.90
12700;DHT22;6414;49.570;6.060;2023-05-10T07:42:52;11.40;99.90
12700;DHT22;6414;49.570;6.060;2023-05-10T07:45:37;11.40;99.90
12700;DHT22;6414;49.570;6.060;2023-05-10T07:48:23;11.40;99.90
12700;DHT22;6414;49.570;6.060;2023-05-10T07:51:09;11.30;99.90
12700;DHT22;6414;49.570;6.060;2023-05-10T07:53:54;11.30;99.90
12700;DHT22;6414;49.570;6.060;2023-05-10T07:56:40;11.50;99.90
12700;DHT22;6414;49.570;6.060;2023-05-10T07:59:27;12.00;99.90
12700;DHT22;6414;49.570;6.060;2023-05-10T08:02:13;12.00;99.90
12700;DHT22;6414;49.570;6.060;2023-05-10T08:04:59;12.00;99.90
12700;DHT22;6414;49.570;6.060;2023-05-10T08:07:45;11.90;99.90
12700;DHT22;6414;49.570;6.060;2023-05-10T08:10:32;11.80;99.90
12700;DHT22;6414;49.570;6.060;2023-05-10T08:13:19;11.80;99.90
12700;DHT22;6414;49.570;6.060;2023-05-10T08:16:06;11.80;99.90
12700;DHT22;6414;49.570;6.060;2023-05-10T08:18:52;11.70;99.90
12700;DHT22;6414;49.570;6.060;2023-05-10T08:21:39;11.60;99.90
12700;DHT22;6414;49.570;6.060;2023-05-10T08:24:25;11.50;99.90
12700;DHT22;6414;49.570;6.060;2023-05-10T08:27:12;11.70;99.90
12700;DHT22;6414;49.570;6.060;2023-05-10T08:29:59;11.60;99.90
12700;DHT22;6414;49.570;6.060;2023-05-10T08:32:46;12.10;99.90
12700;DHT22;6414;49.570;6.060;2023-05-10T08:35:31;12.10;99.90
12700;DHT22;6414;49.570;6.060;2023-05-10T08:38:18;12.70;99.90
12700;DHT22;6414;49.570;6.060;2023-05-10T08:41:04;12.70;99.90
12700;DHT22;6414;49.570;6.060;2023-05-10T08:43:54;13.10;99.90
12700;DHT22;6414;49.570;6.060;2023-05-10T08:46:41;13.00;99.90
12700;DHT22;6414;49.570;6.060;2023-05-10T08:49:26;13.00;99.90
12700;DHT22;6414;49.570;6.060;2023-05-10T08:52:12;13.00;99.90
12700;DHT22;6414;49.570;6.060;2023-05-10T08:54:58;13.20;99.90
12700;DHT22;6414;49.570;6.060;2023-05-10T08:57:44;13.00;99.90
12700;DHT22;6414;49.570;6.060;2023-05-10T09:00:30;12.80;99.90
12700;DHT22;6414;49.570;6.060;2023-05-10T09:03:16;12.70;99.90
12700;DHT22;6414;49.570;6.060;2023-05-10T09:06:02;12.20;99.90
12700;DHT22;6414;49.570;6.060;2023-05-10T09:08:48;12.50;99.90
12700;DHT22;6414;49.570;6.060;2023-05-10T09:11:34;12.70;99.90
12700;DHT22;6414;49.570;6.060;2023-05-10T09:14:20;12.60;99.90
12700;DHT22;6414;49.570;6.060;2023-05-10T09:17:06;13.10;99.90
12700;DHT22;6414;49.570;6.060;2023-05-10T09:20:02;13.40;99.90
12700;DHT22;6414;49.570;6.060;2023-05-10T09:22:47;13.90;99.90
12700;DHT22;6414;49.570;6.060;2023-05-10T09:25:33;14.10;99.90
12700;DHT22;6414;49.570;6.060;2023-05-10T09:28:19;14.70;99.90
12700;DHT22;6414;49.570;6.060;2023-05-10T09:31:06;15.20;99.90
12700;DHT22;6414;49.570;6.060;2023-05-10T09:33:52;15.20;99.90
12700;DHT22;6414;49.570;6.060;2023-05-10T09:36:49;15.70;99.90
12700;DHT22;6414;49.570;6.060;2023-05-10T09:39:34;14.20;99.90
12700;DHT22;6414;49.570;6.060;2023-05-10T09:42:19;14.10;99.90
12700;DHT22;6414;49.570;6.060;2023-05-10T09:45:06;14.10;99.90
12700;DHT22;6414;49.570;6.060;2023-05-10T09:47:52;14.20;99.90
12700;DHT22;6414;49.570;6.060;2023-05-10T09:50:39;14.40;99.90
12700;DHT22;6414;49.570;6.060;2023-05-10T09:53:25;15.00;99.90
12700;DHT22;6414;49.570;6.060;2023-05-10T09:56:11;14.80;99.90
12700;DHT22;6414;49.570;6.060;2023-05-10T09:59:03;14.80;99.90
12700;DHT22;6414;49.570;6.060;2023-05-10T10:01:50;14.80;99.90
12700;DHT22;6414;49.570;6.060;2023-05-10T10:04:39;14.80;99.90
12700;DHT22;6414;49.570;6.060;2023-05-10T10:07:23;15.20;99.90
12700;DHT22;6414;49.570;6.060;2023-05-10T10:10:08;14.90;99.90
12700;DHT22;6414;49.570;6.060;2023-05-10T10:12:54;15.00;99.90
12700;DHT22;6414;49.570;6.060;2023-05-10T10:15:40;14.20;99.90
12700;DHT22;6414;49.570;6.060;2023-05-10T10:18:26;13.90;99.90
12700;DHT22;6414;49.570;6.060;2023-05-10T10:21:12;14.10;99.90
12700;DHT22;6414;49.570;6.060;2023-05-10T10:23:58;14.10;99.90
12700;DHT22;6414;49.570;6.060;2023-05-10T10:26:43;14.30;99.90
12700;DHT22;6414;49.570;6.060;2023-05-10T10:29:49;14.40;99.90
12700;DHT22;6414;49.570;6.060;2023-05-10T10:35:18;14.00;99.90
12700;DHT22;6414;49.570;6.060;2023-05-10T10:38:04;13.70;99.90
12700;DHT22;6414;49.570;6.060;2023-05-10T10:41:03;14.40;99.90
12700;DHT22;6414;49.570;6.060;2023-05-10T10:43:48;15.20;99.90
12700;DHT22;6414;49.570;6.060;2023-05-10T10:46:34;15.70;99.90
12700;DHT22;6414;49.570;6.060;2023-05-10T10:49:19;15.50;99.90
12700;DHT22;6414;49.570;6.060;2023-05-10T10:52:42;15.50;99.90
12700;DHT22;6414;49.570;6.060;2023-05-10T10:55:27;15.40;99.90
12700;DHT22;6414;49.570;6.060;2023-05-10T10:58:30;14.60;99.90
12700;DHT22;6414;49.570;6.060;2023-05-10T11:01:11;14.60;99.90
12700;DHT22;6414;49.570;6.060;2023-05-10T11:06:51;14.00;99.90
12700;DHT22;6414;49.570;6.060;2023-05-10T11:09:40;14.00;99.90
12700;DHT22;6414;49.570;6.060;2023-05-10T11:12:25;14.10;99.90
12700;DHT22;6414;49.570;6.060;2023-05-10T11:15:11;14.10;99.90
12700;DHT22;6414;49.570;6.060;2023-05-10T11:17:57;14.00;99.90
12700;DHT22;6414;49.570;6.060;2023-05-10T11:20:43;14.00;99.90
12700;DHT22;6414;49.570;6.060;2023-05-10T11:23:33;14.10;99.90
12700;DHT22;6414;49.570;6.060;2023-05-10T11:26:19;14.10;99.90
12700;DHT22;6414;49.570;6.060;2023-05-10T11:29:05;14.10;99.90
12700;DHT22;6414;49.570;6.060;2023-05-10T11:31:52;14.20;99.90
12700;DHT22;6414;49.570;6.060;2023-05-10T11:34:39;13.80;99.90
12700;DHT22;6414;49.570;6.060;2023-05-10T11:37:28;13.80;99.90
12700;DHT22;6414;49.570;6.060;2023-05-10T11:40:12;12.80;99.90
12700;DHT22;6414;49.570;6.060;2023-05-10T11:42:58;12.80;99.90
12700;DHT22;6414;49.570;6.060;2023-05-10T11:45:45;12.60;99.90
12700;DHT22;6414;49.570;6.060;2023-05-10T11:48:31;12.60;99.90
12700;DHT22;6414;49.570;6.060;2023-05-10T11:51:21;12.90;99.90
12700;DHT22;6414;49.570;6.060;2023-05-10T11:56:42;13.40;99.90
12700;DHT22;6414;49.570;6.060;2023-05-10T11:59:28;13.60;99.90
12700;DHT22;6414;49.570;6.060;2023-05-10T12:02:14;13.80;99.90
12700;DHT22;6414;49.570;6.060;2023-05-10T12:05:00;14.00;99.90
12700;DHT22;6414;49.570;6.060;2023-05-10T12:07:46;14.20;99.90
12700;DHT22;6414;49.570;6.060;2023-05-10T12:10:34;14.50;99.90
12700;DHT22;6414;49.570;6.060;2023-05-10T12:13:18;14.70;99.90
12700;DHT22;6414;49.570;6.060;2023-05-10T12:16:16;14.80;99.90
12700;DHT22;6414;49.570;6.060;2023-05-10T12:18:59;14.80;69.00
12700;DHT22;6414;49.570;6.060;2023-05-10T12:21:44;15.00;94.80
12700;DHT22;6414;49.570;6.060;2023-05-10T12:24:30;15.00;99.90
12700;DHT22;6414;49.570;6.060;2023-05-10T12:27:15;15.20;99.90
12700;DHT22;6414;49.570;6.060;2023-05-10T12:30:01;15.20;98.50
12700;DHT22;6414;49.570;6.060;2023-05-10T12:32:48;15.20;1.00
12700;DHT22;6414;49.570;6.060;2023-05-10T12:35:42;15.10;1.00
12700;DHT22;6414;49.570;6.060;2023-05-10T12:38:31;15.50;75.50
12700;DHT22;6414;49.570;6.060;2023-05-10T12:41:18;15.60;17.10
12700;DHT22;6414;49.570;6.060;2023-05-10T12:44:04;15.30;99.90
12700;DHT22;6414;49.570;6.060;2023-05-10T12:46:50;15.20;1.00
12700;DHT22;6414;49.570;6.060;2023-05-10T12:49:37;15.40;99.90
12700;DHT22;6414;49.570;6.060;2023-05-10T12:52:24;15.50;99.90
12700;DHT22;6414;49.570;6.060;2023-05-10T12:55:10;15.50;99.90
12700;DHT22;6414;49.570;6.060;2023-05-10T12:57:56;15.60;99.90
12700;DHT22;6414;49.570;6.060;2023-05-10T13:00:43;14.60;99.90
12700;DHT22;6414;49.570;6.060;2023-05-10T13:03:29;14.60;99.90
12700;DHT22;6414;49.570;6.060;2023-05-10T13:06:16;14.50;99.90
12700;DHT22;6414;49.570;6.060;2023-05-10T13:09:02;14.50;99.90
12700;DHT22;6414;49.570;6.060;2023-05-10T13:11:48;14.40;99.90
12700;DHT22;6414;49.570;6.060;2023-05-10T13:14:34;14.50;99.90
12700;DHT22;6414;49.570;6.060;2023-05-10T13:17:20;14.30;99.90
12700;DHT22;6414;49.570;6.060;2023-05-10T13:20:06;14.50;99.90
12700;DHT22;6414;49.570;6.060;2023-05-10T13:22:52;14.70;99.90
12700;DHT22;6414;49.570;6.060;2023-05-10T13:25:39;15.60;99.90
12700;DHT22;6414;49.570;6.060;2023-05-10T13:28:25;15.60;99.90
12700;DHT22;6414;49.570;6.060;2023-05-10T13:31:11;15.10;99.90
12700;DHT22;6414;49.570;6.060;2023-05-10T13:33:57;14.80;99.90
12700;DHT22;6414;49.570;6.060;2023-05-10T13:36:43;14.60;99.90
12700;DHT22;6414;49.570;6.060;2023-05-10T13:39:29;14.60;99.90
12700;DHT22;6414;49.570;6.060;2023-05-10T13:42:17;14.80;99.90
12700;DHT22;6414;49.570;6.060;2023-05-10T13:45:02;14.60;5.20
12700;DHT22;6414;49.570;6.060;2023-05-10T13:47:47;14.60;1.00
12700;DHT22;6414;49.570;6.060;2023-05-10T13:50:33;14.60;99.90
12700;DHT22;6414;49.570;6.060;2023-05-10T13:53:20;14.80;1.00
12700;DHT22;6414;49.570;6.060;2023-05-10T13:56:06;15.30;1.00
12700;DHT22;6414;49.570;6.060;2023-05-10T13:58:53;15.30;1.00
12700;DHT22;6414;49.570;6.060;2023-05-10T14:01:39;15.70;45.50
12700;DHT22;6414;49.570;6.060;2023-05-10T14:04:25;15.70;8.10
12700;DHT22;6414;49.570;6.060;2023-05-10T14:07:10;15.40;1.00
12700;DHT22;6414;49.570;6.060;2023-05-10T14:09:57;15.60;1.00
12700;DHT22;6414;49.570;6.060;2023-05-10T14:12:44;15.30;77.60
12700;DHT22;6414;49.570;6.060;2023-05-10T14:15:30;15.20;69.60
12700;DHT22;6414;49.570;6.060;2023-05-10T14:18:17;15.50;22.30
12700;DHT22;6414;49.570;6.060;2023-05-10T14:21:03;15.30;80.40
12700;DHT22;6414;49.570;6.060;2023-05-10T14:23:51;15.40;91.00
12700;DHT22;6414;49.570;6.060;2023-05-10T14:26:36;15.40;87.20
12700;DHT22;6414;49.570;6.060;2023-05-10T14:29:22;15.50;16.30
12700;DHT22;6414;49.570;6.060;2023-05-10T14:32:09;15.50;99.90
12700;DHT22;6414;49.570;6.060;2023-05-10T14:34:56;15.80;1.00
12700;DHT22;6414;49.570;6.060;2023-05-10T14:37:42;15.80;1.00
12700;DHT22;6414;49.570;6.060;2023-05-10T14:40:28;15.60;1.00
12700;DHT22;6414;49.570;6.060;2023-05-10T14:43:14;15.60;99.90
12700;DHT22;6414;49.570;6.060;2023-05-10T14:46:00;15.40;99.90
12700;DHT22;6414;49.570;6.060;2023-05-10T14:48:47;15.20;1.00
12700;DHT22;6414;49.570;6.060;2023-05-10T14:51:33;14.90;1.00
12700;DHT22;6414;49.570;6.060;2023-05-10T14:54:19;14.40;1.00
12700;DHT22;6414;49.570;6.060;2023-05-10T14:57:05;14.60;48.80
12700;DHT22;6414;49.570;6.060;2023-05-10T14:59:51;14.80;5.80
12700;DHT22;6414;49.570;6.060;2023-05-10T15:02:37;15.00;64.80
12700;DHT22;6414;49.570;6.060;2023-05-10T15:05:24;14.90;1.00
12700;DHT22;6414;49.570;6.060;2023-05-10T15:08:10;15.10;1.00
12700;DHT22;6414;49.570;6.060;2023-05-10T15:10:56;15.10;1.00
12700;DHT22;6414;49.570;6.060;2023-05-10T15:13:42;14.70;2.60
12700;DHT22;6414;49.570;6.060;2023-05-10T15:16:28;14.70;1.00
12700;DHT22;6414;49.570;6.060;2023-05-10T15:19:15;14.70;1.00
12700;DHT22;6414;49.570;6.060;2023-05-10T15:22:01;14.60;1.10
12700;DHT22;6414;49.570;6.060;2023-05-10T15:24:47;14.70;1.00
12700;DHT22;6414;49.570;6.060;2023-05-10T15:27:33;14.70;32.70
12700;DHT22;6414;49.570;6.060;2023-05-10T15:30:20;15.00;58.60
12700;DHT22;6414;49.570;6.060;2023-05-10T15:33:06;15.00;56.90
12700;DHT22;6414;49.570;6.060;2023-05-10T15:35:53;15.00;5.90
12700;DHT22;6414;49.570;6.060;2023-05-10T15:38:39;15.20;38.80
12700;DHT22;6414;49.570;6.060;2023-05-10T15:41:26;15.30;1.00
12700;DHT22;6414;49.570;6.060;2023-05-10T15:44:12;15.20;1.00
12700;DHT22;6414;49.570;6.060;2023-05-10T15:46:58;15.60;1.00
12700;DHT22;6414;49.570;6.060;2023-05-10T15:49:44;15.60;99.90
12700;DHT22;6414;49.570;6.060;2023-05-10T15:52:30;15.40;99.90
12700;DHT22;6414;49.570;6.060;2023-05-10T15:55:17;15.40;99.90
12700;DHT22;6414;49.570;6.060;2023-05-10T15:58:04;15.30;99.90
12700;DHT22;6414;49.570;6.060;2023-05-10T16:00:50;15.50;1.00
12700;DHT22;6414;49.570;6.060;2023-05-10T16:03:36;15.70;1.00
12700;DHT22;6414;49.570;6.060;2023-05-10T16:06:23;16.10;1.00
12700;DHT22;6414;49.570;6.060;2023-05-10T16:09:09;16.10;1.00
12700;DHT22;6414;49.570;6.060;2023-05-10T16:11:56;15.90;99.90
12700;DHT22;6414;49.570;6.060;2023-05-10T16:14:43;15.60;1.00
12700;DHT22;6414;49.570;6.060;2023-05-10T16:17:29;15.60;1.00
12700;DHT22;6414;49.570;6.060;2023-05-10T16:20:16;15.40;1.00
12700;DHT22;6414;49.570;6.060;2023-05-10T16:23:02;15.40;1.00
12700;DHT22;6414;49.570;6.060;2023-05-10T16:25:48;15.20;1.00
12700;DHT22;6414;49.570;6.060;2023-05-10T16:28:34;15.10;1.00
12700;DHT22;6414;49.570;6.060;2023-05-10T16:31:20;14.80;42.70
12700;DHT22;6414;49.570;6.060;2023-05-10T16:34:06;14.40;99.90
12700;DHT22;6414;49.570;6.060;2023-05-10T16:36:52;13.90;99.90
12700;DHT22;6414;49.570;6.060;2023-05-10T16:39:39;13.50;99.90
12700;DHT22;6414;49.570;6.060;2023-05-10T16:42:26;13.40;99.90
12700;DHT22;6414;49.570;6.060;2023-05-10T16:45:11;13.30;99.90
12700;DHT22;6414;49.570;6.060;2023-05-10T16:47:58;13.20;99.90
12700;DHT22;6414;49.570;6.060;2023-05-10T16:50:44;13.20;99.90
12700;DHT22;6414;49.570;6.060;2023-05-10T16:53:30;13.10;99.90
12700;DHT22;6414;49.570;6.060;2023-05-10T16:56:16;13.00;99.90
12700;DHT22;6414;49.570;6.060;2023-05-10T16:59:03;12.90;99.90
12700;DHT22;6414;49.570;6.060;2023-05-10T17:01:49;12.80;99.90
12700;DHT22;6414;49.570;6.060;2023-05-10T17:04:35;12.80;99.90
12700;DHT22;6414;49.570;6.060;2023-05-10T17:07:21;12.60;99.90
12700;DHT22;6414;49.570;6.060;2023-05-10T17:10:07;12.50;99.90
12700;DHT22;6414;49.570;6.060;2023-05-10T17:12:53;12.20;99.90
12700;DHT22;6414;49.570;6.060;2023-05-10T17:15:40;12.40;99.90
12700;DHT22;6414;49.570;6.060;2023-05-10T17:18:27;12.30;99.90
12700;DHT22;6414;49.570;6.060;2023-05-10T17:21:14;12.40;99.90
12700;DHT22;6414;49.570;6.060;2023-05-10T17:24:00;12.20;99.90
12700;DHT22;6414;49.570;6.060;2023-05-10T17:26:46;12.40;99.90
12700;DHT22;6414;49.570;6.060;2023-05-10T17:29:32;12.50;99.90
12700;DHT22;6414;49.570;6.060;2023-05-10T17:32:20;12.40;99.90
12700;DHT22;6414;49.570;6.060;2023-05-10T17:35:06;12.50;99.90
12700;DHT22;6414;49.570;6.060;2023-05-10T17:37:52;12.50;99.90
12700;DHT22;6414;49.570;6.060;2023-05-10T17:40:41;12.50;99.90
12700;DHT22;6414;49.570;6.060;2023-05-10T17:43:27;12.30;99.90
12700;DHT22;6414;49.570;6.060;2023-05-10T17:46:13;12.30;99.90
12700;DHT22;6414;49.570;6.060;2023-05-10T17:48:59;12.40;99.90
12700;DHT22;6414;49.570;6.060;2023-05-10T17:51:45;12.30;99.90
12700;DHT22;6414;49.570;6.060;2023-05-10T17:54:31;12.40;99.90
12700;DHT22;6414;49.570;6.060;2023-05-10T17:57:18;12.30;99.90
12700;DHT22;6414;49.570;6.060;2023-05-10T18:00:04;12.30;99.90
12700;DHT22;6414;49.570;6.060;2023-05-10T18:02:50;12.30;99.90